sensor_id;sensor_type;location;lat;lon;timestamp;P1;durP1;ratioP1;P2;durP2;ratioP2
29634;SDS011;16557;54.762;56.068;2023-04-01T00:01:32;8.08;;;2.80;;
29634;SDS011;16557;54.762;56.068;2023-04-01T00:04:02;6.25;;;2.60;;
29634;SDS011;16557;54.762;56.068;2023-04-01T00:06:32;5.97;;;2.33;;
29634;SDS011;16557;54.762;56.068;2023-04-01T00:09:01;8.58;;;2.40;;
29634;SDS011;16557;54.762;56.068;2023-04-01T00:11:30;15.48;;;3.08;;
29634;SDS011;16557;54.762;56.068;2023-04-01T00:14:00;9.50;;;2.67;;
29634;SDS011;16557;54.762;56.068;2023-04-01T00:16:30;9.30;;;3.15;;
29634;SDS011;16557;54.762;56.068;2023-04-01T00:18:59;9.60;;;3.47;;
29634;SDS011;16557;54.762;56.068;2023-04-01T00:21:29;8.25;;;2.58;;
29634;SDS011;16557;54.762;56.068;2023-04-01T00:23:58;6.53;;;2.27;;
29634;SDS011;16557;54.762;56.068;2023-04-01T00:26:28;7.85;;;2.58;;
29634;SDS011;16557;54.762;56.068;2023-04-01T00:28:58;4.87;;;2.70;;
29634;SDS011;16557;54.762;56.068;2023-04-01T00:31:28;3.90;;;2.40;;
29634;SDS011;16557;54.762;56.068;2023-04-01T00:33:57;5.22;;;2.40;;
29634;SDS011;16557;54.762;56.068;2023-04-01T00:36:26;6.00;;;2.33;;
29634;SDS011;16557;54.762;56.068;2023-04-01T00:38:57;4.58;;;1.95;;
29634;SDS011;16557;54.762;56.068;2023-04-01T00:41:29;5.40;;;2.55;;
29634;SDS011;16557;54.762;56.068;2023-04-01T00:44:21;4.22;;;2.45;;
29634;SDS011;16557;54.762;56.068;2023-04-01T00:46:51;4.37;;;2.30;;
29634;SDS011;16557;54.762;56.068;2023-04-01T00:49:29;4.22;;;2.58;;
29634;SDS011;16557;54.762;56.068;2023-04-01T00:51:53;5.67;;;2.98;;
29634;SDS011;16557;54.762;56.068;2023-04-01T00:54:24;4.70;;;2.20;;
29634;SDS011;16557;54.762;56.068;2023-04-01T00:56:55;6.58;;;2.45;;
29634;SDS011;16557;54.762;56.068;2023-04-01T00:59:27;5.58;;;2.20;;
29634;SDS011;16557;54.762;56.068;2023-04-01T01:01:59;10.10;;;2.75;;
29634;SDS011;16557;54.762;56.068;2023-04-01T01:04:31;7.67;;;3.65;;
29634;SDS011;16557;54.762;56.068;2023-04-01T01:15:07;5.12;;;2.55;;
29634;SDS011;16557;54.762;56.068;2023-04-01T01:37:14;8.28;;;2.75;;
29634;SDS011;16557;54.762;56.068;2023-04-01T01:39:46;4.50;;;2.60;;
29634;SDS011;16557;54.762;56.068;2023-04-01T01:42:17;6.55;;;2.60;;
29634;SDS011;16557;54.762;56.068;2023-04-01T01:44:47;8.35;;;3.15;;
29634;SDS011;16557;54.762;56.068;2023-04-01T01:47:17;5.10;;;2.55;;
29634;SDS011;16557;54.762;56.068;2023-04-01T01:49:48;7.17;;;2.75;;
29634;SDS011;16557;54.762;56.068;2023-04-01T01:52:18;10.50;;;2.87;;
29634;SDS011;16557;54.762;56.068;2023-04-01T01:54:57;6.97;;;2.47;;
29634;SDS011;16557;54.762;56.068;2023-04-01T01:57:34;4.65;;;2.80;;
29634;SDS011;16557;54.762;56.068;2023-04-01T02:00:02;4.15;;;2.50;;
29634;SDS011;16557;54.762;56.068;2023-04-01T02:02:32;4.05;;;2.58;;
29634;SDS011;16557;54.762;56.068;2023-04-01T02:05:01;5.75;;;2.83;;
29634;SDS011;16557;54.762;56.068;2023-04-01T02:07:33;6.00;;;2.55;;
29634;SDS011;16557;54.762;56.068;2023-04-01T02:10:03;7.78;;;2.80;;
29634;SDS011;16557;54.762;56.068;2023-04-01T02:12:33;5.83;;;3.08;;
29634;SDS011;16557;54.762;56.068;2023-04-01T02:15:05;6.00;;;2.42;;
29634;SDS011;16557;54.762;56.068;2023-04-01T02:17:38;4.42;;;2.62;;
29634;SDS011;16557;54.762;56.068;2023-04-01T02:20:21;9.03;;;3.37;;
29634;SDS011;16557;54.762;56.068;2023-04-01T02:22:54;4.28;;;2.70;;
29634;SDS011;16557;54.762;56.068;2023-04-01T02:25:22;5.78;;;3.00;;
29634;SDS011;16557;54.762;56.068;2023-04-01T02:27:55;3.50;;;2.20;;
29634;SDS011;16557;54.762;56.068;2023-04-01T02:30:25;9.48;;;3.62;;
29634;SDS011;16557;54.762;56.068;2023-04-01T02:32:56;6.00;;;2.98;;
29634;SDS011;16557;54.762;56.068;2023-04-01T02:35:26;4.45;;;2.45;;
29634;SDS011;16557;54.762;56.068;2023-04-01T02:37:55;6.55;;;3.22;;
29634;SDS011;16557;54.762;56.068;2023-04-01T02:40:24;6.85;;;2.80;;
29634;SDS011;16557;54.762;56.068;2023-04-01T02:42:54;6.03;;;3.10;;
29634;SDS011;16557;54.762;56.068;2023-04-01T02:45:23;7.45;;;3.33;;
29634;SDS011;16557;54.762;56.068;2023-04-01T02:47:52;8.20;;;3.30;;
29634;SDS011;16557;54.762;56.068;2023-04-01T02:50:22;7.62;;;3.47;;
29634;SDS011;16557;54.762;56.068;2023-04-01T02:52:51;5.72;;;3.83;;
29634;SDS011;16557;54.762;56.068;2023-04-01T02:55:20;5.83;;;3.40;;
29634;SDS011;16557;54.762;56.068;2023-04-01T02:57:49;8.35;;;3.22;;
29634;SDS011;16557;54.762;56.068;2023-04-01T03:00:20;9.83;;;3.85;;
29634;SDS011;16557;54.762;56.068;2023-04-01T03:02:50;7.00;;;3.92;;
29634;SDS011;16557;54.762;56.068;2023-04-01T03:05:20;7.45;;;3.75;;
29634;SDS011;16557;54.762;56.068;2023-04-01T03:07:49;6.58;;;3.08;;
29634;SDS011;16557;54.762;56.068;2023-04-01T03:10:18;7.35;;;3.55;;
29634;SDS011;16557;54.762;56.068;2023-04-01T03:12:47;5.92;;;3.05;;
29634;SDS011;16557;54.762;56.068;2023-04-01T03:15:17;5.17;;;3.27;;
29634;SDS011;16557;54.762;56.068;2023-04-01T03:17:46;9.03;;;4.05;;
29634;SDS011;16557;54.762;56.068;2023-04-01T03:20:15;7.08;;;3.10;;
29634;SDS011;16557;54.762;56.068;2023-04-01T03:22:45;8.38;;;3.60;;
29634;SDS011;16557;54.762;56.068;2023-04-01T03:25:14;6.75;;;3.95;;
29634;SDS011;16557;54.762;56.068;2023-04-01T03:27:44;6.55;;;3.60;;
29634;SDS011;16557;54.762;56.068;2023-04-01T03:30:14;8.88;;;3.70;;
29634;SDS011;16557;54.762;56.068;2023-04-01T03:32:43;11.33;;;4.67;;
29634;SDS011;16557;54.762;56.068;2023-04-01T03:35:12;10.55;;;4.05;;
29634;SDS011;16557;54.762;56.068;2023-04-01T03:37:42;8.18;;;3.42;;
29634;SDS011;16557;54.762;56.068;2023-04-01T03:40:11;8.73;;;4.22;;
29634;SDS011;16557;54.762;56.068;2023-04-01T03:42:41;7.83;;;4.08;;
29634;SDS011;16557;54.762;56.068;2023-04-01T03:45:10;6.85;;;4.10;;
29634;SDS011;16557;54.762;56.068;2023-04-01T03:47:40;7.40;;;3.62;;
29634;SDS011;16557;54.762;56.068;2023-04-01T03:50:09;5.80;;;3.80;;
29634;SDS011;16557;54.762;56.068;2023-04-01T03:52:38;6.08;;;3.40;;
29634;SDS011;16557;54.762;56.068;2023-04-01T03:55:08;7.92;;;3.55;;
29634;SDS011;16557;54.762;56.068;2023-04-01T03:57:38;12.25;;;6.72;;
29634;SDS011;16557;54.762;56.068;2023-04-01T04:00:07;9.53;;;4.33;;
29634;SDS011;16557;54.762;56.068;2023-04-01T04:02:37;8.00;;;3.98;;
29634;SDS011;16557;54.762;56.068;2023-04-01T04:05:07;5.05;;;3.40;;
29634;SDS011;16557;54.762;56.068;2023-04-01T04:07:37;7.75;;;3.52;;
29634;SDS011;16557;54.762;56.068;2023-04-01T04:10:06;7.12;;;4.08;;
29634;SDS011;16557;54.762;56.068;2023-04-01T04:12:36;6.22;;;3.37;;
29634;SDS011;16557;54.762;56.068;2023-04-01T04:15:05;6.85;;;3.30;;
29634;SDS011;16557;54.762;56.068;2023-04-01T04:17:35;5.78;;;3.10;;
29634;SDS011;16557;54.762;56.068;2023-04-01T04:20:05;4.28;;;3.10;;
29634;SDS011;16557;54.762;56.068;2023-04-01T04:22:35;6.50;;;3.42;;
29634;SDS011;16557;54.762;56.068;2023-04-01T04:25:04;6.10;;;3.45;;
29634;SDS011;16557;54.762;56.068;2023-04-01T04:27:34;7.70;;;4.12;;
29634;SDS011;16557;54.762;56.068;2023-04-01T04:30:04;8.70;;;4.10;;
29634;SDS011;16557;54.762;56.068;2023-04-01T04:32:34;8.13;;;3.77;;
29634;SDS011;16557;54.762;56.068;2023-04-01T04:35:04;8.75;;;4.17;;
29634;SDS011;16557;54.762;56.068;2023-04-01T04:37:34;10.95;;;4.25;;
29634;SDS011;16557;54.762;56.068;2023-04-01T04:40:03;8.38;;;4.10;;
29634;SDS011;16557;54.762;56.068;2023-04-01T04:42:33;9.63;;;4.50;;
29634;SDS011;16557;54.762;56.068;2023-04-01T04:45:03;7.65;;;4.65;;
29634;SDS011;16557;54.762;56.068;2023-04-01T04:47:32;6.60;;;4.00;;
29634;SDS011;16557;54.762;56.068;2023-04-01T04:50:02;5.90;;;3.67;;
29634;SDS011;16557;54.762;56.068;2023-04-01T04:52:31;7.90;;;4.50;;
29634;SDS011;16557;54.762;56.068;2023-04-01T04:55:00;8.23;;;4.30;;
29634;SDS011;16557;54.762;56.068;2023-04-01T04:57:29;8.00;;;4.10;;
29634;SDS011;16557;54.762;56.068;2023-04-01T04:59:59;7.92;;;4.30;;
29634;SDS011;16557;54.762;56.068;2023-04-01T05:02:29;7.33;;;3.55;;
29634;SDS011;16557;54.762;56.068;2023-04-01T05:04:58;7.62;;;3.92;;
29634;SDS011;16557;54.762;56.068;2023-04-01T05:07:28;6.83;;;3.95;;
29634;SDS011;16557;54.762;56.068;2023-04-01T05:09:57;8.93;;;4.83;;
29634;SDS011;16557;54.762;56.068;2023-04-01T05:12:28;5.78;;;4.10;;
29634;SDS011;16557;54.762;56.068;2023-04-01T05:14:59;7.80;;;4.30;;
29634;SDS011;16557;54.762;56.068;2023-04-01T05:17:29;9.18;;;3.75;;
29634;SDS011;16557;54.762;56.068;2023-04-01T05:20:03;6.58;;;3.85;;
29634;SDS011;16557;54.762;56.068;2023-04-01T05:22:33;9.20;;;3.98;;
29634;SDS011;16557;54.762;56.068;2023-04-01T05:25:02;58.08;;;38.75;;
29634;SDS011;16557;54.762;56.068;2023-04-01T05:27:31;24.82;;;16.35;;
29634;SDS011;16557;54.762;56.068;2023-04-01T05:30:01;70.72;;;45.45;;
29634;SDS011;16557;54.762;56.068;2023-04-01T05:32:31;34.70;;;22.58;;
29634;SDS011;16557;54.762;56.068;2023-04-01T05:35:02;21.82;;;14.60;;
29634;SDS011;16557;54.762;56.068;2023-04-01T05:37:30;21.90;;;12.40;;
29634;SDS011;16557;54.762;56.068;2023-04-01T05:40:02;16.73;;;10.32;;
29634;SDS011;16557;54.762;56.068;2023-04-01T05:42:33;17.15;;;11.57;;
29634;SDS011;16557;54.762;56.068;2023-04-01T05:45:03;17.77;;;10.40;;
29634;SDS011;16557;54.762;56.068;2023-04-01T05:47:32;10.05;;;6.22;;
29634;SDS011;16557;54.762;56.068;2023-04-01T05:50:01;6.42;;;3.95;;
29634;SDS011;16557;54.762;56.068;2023-04-01T05:52:31;12.85;;;6.97;;
29634;SDS011;16557;54.762;56.068;2023-04-01T05:55:00;9.45;;;4.72;;
29634;SDS011;16557;54.762;56.068;2023-04-01T05:57:29;6.33;;;4.70;;
29634;SDS011;16557;54.762;56.068;2023-04-01T05:59:58;8.53;;;4.80;;
29634;SDS011;16557;54.762;56.068;2023-04-01T06:02:30;6.40;;;3.42;;
29634;SDS011;16557;54.762;56.068;2023-04-01T06:05:18;6.92;;;4.53;;
29634;SDS011;16557;54.762;56.068;2023-04-01T06:07:40;7.00;;;3.80;;
29634;SDS011;16557;54.762;56.068;2023-04-01T06:10:11;6.25;;;4.22;;
29634;SDS011;16557;54.762;56.068;2023-04-01T06:15:53;7.35;;;4.42;;
29634;SDS011;16557;54.762;56.068;2023-04-01T06:18:49;6.08;;;3.50;;
29634;SDS011;16557;54.762;56.068;2023-04-01T06:24:25;5.67;;;3.72;;
29634;SDS011;16557;54.762;56.068;2023-04-01T06:26:58;8.58;;;5.33;;
29634;SDS011;16557;54.762;56.068;2023-04-01T06:29:54;13.32;;;8.28;;
29634;SDS011;16557;54.762;56.068;2023-04-01T06:32:55;10.48;;;4.60;;
29634;SDS011;16557;54.762;56.068;2023-04-01T06:35:29;6.87;;;4.62;;
29634;SDS011;16557;54.762;56.068;2023-04-01T06:40:58;8.60;;;5.78;;
29634;SDS011;16557;54.762;56.068;2023-04-01T06:48:47;8.98;;;5.90;;
29634;SDS011;16557;54.762;56.068;2023-04-01T06:51:36;8.30;;;5.25;;
29634;SDS011;16557;54.762;56.068;2023-04-01T06:54:05;9.70;;;5.65;;
29634;SDS011;16557;54.762;56.068;2023-04-01T06:56:50;8.85;;;5.15;;
29634;SDS011;16557;54.762;56.068;2023-04-01T06:59:25;9.88;;;6.45;;
29634;SDS011;16557;54.762;56.068;2023-04-01T07:02:01;8.30;;;5.97;;
29634;SDS011;16557;54.762;56.068;2023-04-01T07:04:44;8.78;;;5.72;;
29634;SDS011;16557;54.762;56.068;2023-04-01T07:10:04;8.13;;;5.83;;
29634;SDS011;16557;54.762;56.068;2023-04-01T07:12:43;10.40;;;5.60;;
29634;SDS011;16557;54.762;56.068;2023-04-01T07:15:20;9.43;;;5.92;;
29634;SDS011;16557;54.762;56.068;2023-04-01T07:17:48;15.50;;;9.15;;
29634;SDS011;16557;54.762;56.068;2023-04-01T07:20:23;10.08;;;7.08;;
29634;SDS011;16557;54.762;56.068;2023-04-01T07:22:56;11.50;;;6.85;;
29634;SDS011;16557;54.762;56.068;2023-04-01T07:25:43;11.10;;;6.87;;
29634;SDS011;16557;54.762;56.068;2023-04-01T07:28:12;15.23;;;7.33;;
29634;SDS011;16557;54.762;56.068;2023-04-01T07:30:56;10.23;;;7.05;;
29634;SDS011;16557;54.762;56.068;2023-04-01T07:36:19;13.65;;;7.55;;
29634;SDS011;16557;54.762;56.068;2023-04-01T07:41:55;11.33;;;7.42;;
29634;SDS011;16557;54.762;56.068;2023-04-01T07:50:13;11.15;;;6.97;;
29634;SDS011;16557;54.762;56.068;2023-04-01T07:52:51;18.48;;;10.53;;
29634;SDS011;16557;54.762;56.068;2023-04-01T07:55:29;14.30;;;7.15;;
29634;SDS011;16557;54.762;56.068;2023-04-01T07:58:04;11.30;;;6.65;;
29634;SDS011;16557;54.762;56.068;2023-04-01T08:09:15;9.40;;;6.17;;
29634;SDS011;16557;54.762;56.068;2023-04-01T08:12:08;11.22;;;6.80;;
29634;SDS011;16557;54.762;56.068;2023-04-01T08:17:41;12.30;;;7.15;;
29634;SDS011;16557;54.762;56.068;2023-04-01T08:20:27;17.55;;;9.85;;
29634;SDS011;16557;54.762;56.068;2023-04-01T08:25:32;10.63;;;7.08;;
29634;SDS011;16557;54.762;56.068;2023-04-01T08:30:58;9.28;;;7.95;;
29634;SDS011;16557;54.762;56.068;2023-04-01T08:33:26;9.93;;;6.97;;
29634;SDS011;16557;54.762;56.068;2023-04-01T08:36:03;12.78;;;8.35;;
29634;SDS011;16557;54.762;56.068;2023-04-01T08:38:43;13.48;;;9.28;;
29634;SDS011;16557;54.762;56.068;2023-04-01T08:47:09;12.30;;;9.43;;
29634;SDS011;16557;54.762;56.068;2023-04-01T08:52:59;9.70;;;6.60;;
29634;SDS011;16557;54.762;56.068;2023-04-01T08:58:32;8.25;;;6.03;;
29634;SDS011;16557;54.762;56.068;2023-04-01T09:01:21;9.13;;;5.92;;
29634;SDS011;16557;54.762;56.068;2023-04-01T09:06:50;7.55;;;4.15;;
29634;SDS011;16557;54.762;56.068;2023-04-01T09:09:34;5.12;;;4.15;;
29634;SDS011;16557;54.762;56.068;2023-04-01T09:12:24;6.90;;;3.30;;
29634;SDS011;16557;54.762;56.068;2023-04-01T09:15:16;6.45;;;3.92;;
29634;SDS011;16557;54.762;56.068;2023-04-01T09:20:44;5.30;;;3.42;;
29634;SDS011;16557;54.762;56.068;2023-04-01T09:26:23;4.87;;;3.42;;
29634;SDS011;16557;54.762;56.068;2023-04-01T09:29:17;7.22;;;3.35;;
29634;SDS011;16557;54.762;56.068;2023-04-01T09:40:18;5.72;;;3.67;;
29634;SDS011;16557;54.762;56.068;2023-04-01T09:43:00;6.22;;;4.12;;
29634;SDS011;16557;54.762;56.068;2023-04-01T09:45:51;6.08;;;4.17;;
29634;SDS011;16557;54.762;56.068;2023-04-01T09:54:24;7.15;;;3.87;;
29634;SDS011;16557;54.762;56.068;2023-04-01T10:19:22;7.67;;;3.50;;
29634;SDS011;16557;54.762;56.068;2023-04-01T10:24:43;4.47;;;3.08;;
29634;SDS011;16557;54.762;56.068;2023-04-01T10:29:57;7.85;;;4.65;;
29634;SDS011;16557;54.762;56.068;2023-04-01T10:32:32;6.42;;;4.47;;
29634;SDS011;16557;54.762;56.068;2023-04-01T10:38:06;6.62;;;5.22;;
29634;SDS011;16557;54.762;56.068;2023-04-01T10:52:06;16.20;;;9.68;;
29634;SDS011;16557;54.762;56.068;2023-04-01T10:54:43;8.60;;;6.37;;
29634;SDS011;16557;54.762;56.068;2023-04-01T10:57:25;13.98;;;7.25;;
29634;SDS011;16557;54.762;56.068;2023-04-01T11:09:07;12.03;;;8.70;;
29634;SDS011;16557;54.762;56.068;2023-04-01T11:25:22;9.70;;;7.65;;
29634;SDS011;16557;54.762;56.068;2023-04-01T11:28:06;12.80;;;8.88;;
29634;SDS011;16557;54.762;56.068;2023-04-01T11:30:39;17.37;;;12.43;;
29634;SDS011;16557;54.762;56.068;2023-04-01T11:33:19;12.28;;;9.10;;
29634;SDS011;16557;54.762;56.068;2023-04-01T11:41:48;11.78;;;8.90;;
29634;SDS011;16557;54.762;56.068;2023-04-01T11:52:25;13.48;;;8.23;;
29634;SDS011;16557;54.762;56.068;2023-04-01T12:01:23;8.18;;;5.70;;
29634;SDS011;16557;54.762;56.068;2023-04-01T12:12:32;6.65;;;5.22;;
29634;SDS011;16557;54.762;56.068;2023-04-01T12:17:57;7.15;;;4.60;;
29634;SDS011;16557;54.762;56.068;2023-04-01T12:26:35;6.78;;;3.55;;
29634;SDS011;16557;54.762;56.068;2023-04-01T12:37:35;7.65;;;4.28;;
29634;SDS011;16557;54.762;56.068;2023-04-01T12:43:40;6.28;;;3.87;;
29634;SDS011;16557;54.762;56.068;2023-04-01T12:46:32;5.17;;;3.47;;
29634;SDS011;16557;54.762;56.068;2023-04-01T12:52:20;6.03;;;4.00;;
29634;SDS011;16557;54.762;56.068;2023-04-01T12:57:56;6.00;;;4.37;;
29634;SDS011;16557;54.762;56.068;2023-04-01T13:06:15;5.55;;;3.65;;
29634;SDS011;16557;54.762;56.068;2023-04-01T13:08:53;5.72;;;4.25;;
29634;SDS011;16557;54.762;56.068;2023-04-01T13:14:35;6.92;;;5.40;;
29634;SDS011;16557;54.762;56.068;2023-04-01T13:17:27;7.37;;;5.50;;
29634;SDS011;16557;54.762;56.068;2023-04-01T13:28:08;8.05;;;5.33;;
29634;SDS011;16557;54.762;56.068;2023-04-01T13:39:27;8.98;;;5.58;;
29634;SDS011;16557;54.762;56.068;2023-04-01T13:42:16;7.12;;;4.90;;
29634;SDS011;16557;54.762;56.068;2023-04-01T14:01:41;15.88;;;10.60;;
29634;SDS011;16557;54.762;56.068;2023-04-01T14:18:33;4.60;;;3.67;;
29634;SDS011;16557;54.762;56.068;2023-04-01T14:27:21;4.72;;;3.22;;
29634;SDS011;16557;54.762;56.068;2023-04-01T14:30:01;6.22;;;3.85;;
29634;SDS011;16557;54.762;56.068;2023-04-01T14:32:36;7.00;;;4.40;;
29634;SDS011;16557;54.762;56.068;2023-04-01T14:41:02;7.17;;;4.45;;
29634;SDS011;16557;54.762;56.068;2023-04-01T14:49:40;8.88;;;6.70;;
29634;SDS011;16557;54.762;56.068;2023-04-01T14:52:16;9.50;;;6.03;;
29634;SDS011;16557;54.762;56.068;2023-04-01T14:54:46;8.80;;;6.10;;
29634;SDS011;16557;54.762;56.068;2023-04-01T14:57:22;8.23;;;5.45;;
29634;SDS011;16557;54.762;56.068;2023-04-01T15:00:01;7.25;;;5.20;;
29634;SDS011;16557;54.762;56.068;2023-04-01T15:05:45;9.15;;;5.55;;
29634;SDS011;16557;54.762;56.068;2023-04-01T15:08:35;9.35;;;7.03;;
29634;SDS011;16557;54.762;56.068;2023-04-01T15:16:46;9.25;;;6.70;;
29634;SDS011;16557;54.762;56.068;2023-04-01T15:19:31;9.38;;;6.40;;
29634;SDS011;16557;54.762;56.068;2023-04-01T15:30:30;8.95;;;6.03;;
29634;SDS011;16557;54.762;56.068;2023-04-01T15:33:11;6.95;;;5.72;;
29634;SDS011;16557;54.762;56.068;2023-04-01T15:36:02;23.60;;;14.98;;
29634;SDS011;16557;54.762;56.068;2023-04-01T15:38:36;37.17;;;22.57;;
29634;SDS011;16557;54.762;56.068;2023-04-01T15:41:16;16.15;;;10.63;;
29634;SDS011;16557;54.762;56.068;2023-04-01T15:43:53;64.82;;;42.27;;
29634;SDS011;16557;54.762;56.068;2023-04-01T15:55:00;15.35;;;10.43;;
29634;SDS011;16557;54.762;56.068;2023-04-01T16:00:19;11.70;;;8.45;;
29634;SDS011;16557;54.762;56.068;2023-04-01T16:03:10;12.47;;;8.58;;
29634;SDS011;16557;54.762;56.068;2023-04-01T16:08:58;9.45;;;7.35;;
29634;SDS011;16557;54.762;56.068;2023-04-01T16:17:03;10.28;;;7.47;;
29634;SDS011;16557;54.762;56.068;2023-04-01T16:28:32;10.50;;;7.42;;
29634;SDS011;16557;54.762;56.068;2023-04-01T16:31:08;10.88;;;7.75;;
29634;SDS011;16557;54.762;56.068;2023-04-01T16:33:56;10.78;;;7.55;;
29634;SDS011;16557;54.762;56.068;2023-04-01T16:42:24;16.90;;;11.85;;
29634;SDS011;16557;54.762;56.068;2023-04-01T16:50:39;17.98;;;10.88;;
29634;SDS011;16557;54.762;56.068;2023-04-01T16:56:23;14.98;;;11.15;;
29634;SDS011;16557;54.762;56.068;2023-04-01T16:59:04;14.85;;;9.53;;
29634;SDS011;16557;54.762;56.068;2023-04-01T17:01:43;14.25;;;10.58;;
29634;SDS011;16557;54.762;56.068;2023-04-01T17:15:39;15.43;;;10.98;;
29634;SDS011;16557;54.762;56.068;2023-04-01T17:21:35;13.88;;;10.55;;
29634;SDS011;16557;54.762;56.068;2023-04-01T17:30:09;14.58;;;10.00;;
29634;SDS011;16557;54.762;56.068;2023-04-01T17:32:50;16.50;;;11.75;;
29634;SDS011;16557;54.762;56.068;2023-04-01T17:43:42;14.35;;;10.68;;
29634;SDS011;16557;54.762;56.068;2023-04-01T17:46:02;16.50;;;11.00;;
29634;SDS011;16557;54.762;56.068;2023-04-01T17:48:54;17.92;;;12.20;;
29634;SDS011;16557;54.762;56.068;2023-04-01T17:51:40;14.23;;;10.25;;
29634;SDS011;16557;54.762;56.068;2023-04-01T17:54:36;15.08;;;9.48;;
29634;SDS011;16557;54.762;56.068;2023-04-01T17:57:22;17.00;;;10.40;;
29634;SDS011;16557;54.762;56.068;2023-04-01T18:00:13;14.78;;;11.12;;
29634;SDS011;16557;54.762;56.068;2023-04-01T18:05:51;14.07;;;9.30;;
29634;SDS011;16557;54.762;56.068;2023-04-01T18:13:57;14.45;;;10.43;;
29634;SDS011;16557;54.762;56.068;2023-04-01T18:16:51;14.13;;;10.03;;
29634;SDS011;16557;54.762;56.068;2023-04-01T18:22:19;14.13;;;8.88;;
29634;SDS011;16557;54.762;56.068;2023-04-01T18:24:54;13.30;;;9.60;;
29634;SDS011;16557;54.762;56.068;2023-04-01T18:27:39;14.43;;;10.82;;
29634;SDS011;16557;54.762;56.068;2023-04-01T18:30:15;13.98;;;10.65;;
29634;SDS011;16557;54.762;56.068;2023-04-01T18:32:50;19.95;;;14.15;;
29634;SDS011;16557;54.762;56.068;2023-04-01T18:38:31;14.05;;;10.10;;
29634;SDS011;16557;54.762;56.068;2023-04-01T18:43:51;14.65;;;10.85;;
29634;SDS011;16557;54.762;56.068;2023-04-01T18:49:39;20.25;;;14.70;;
29634;SDS011;16557;54.762;56.068;2023-04-01T18:52:17;14.68;;;10.48;;
29634;SDS011;16557;54.762;56.068;2023-04-01T18:57:42;12.75;;;9.53;;
29634;SDS011;16557;54.762;56.068;2023-04-01T19:00:32;13.55;;;10.25;;
29634;SDS011;16557;54.762;56.068;2023-04-01T19:03:23;16.15;;;9.85;;
29634;SDS011;16557;54.762;56.068;2023-04-01T19:05:56;16.62;;;11.03;;
29634;SDS011;16557;54.762;56.068;2023-04-01T19:08:32;29.50;;;17.73;;
29634;SDS011;16557;54.762;56.068;2023-04-01T19:11:08;16.65;;;12.35;;
29634;SDS011;16557;54.762;56.068;2023-04-01T19:16:50;14.38;;;9.30;;
29634;SDS011;16557;54.762;56.068;2023-04-01T19:19:54;14.00;;;11.20;;
29634;SDS011;16557;54.762;56.068;2023-04-01T19:22:52;13.03;;;9.53;;
29634;SDS011;16557;54.762;56.068;2023-04-01T19:25:46;13.50;;;9.23;;
29634;SDS011;16557;54.762;56.068;2023-04-01T19:48:33;19.70;;;13.30;;
29634;SDS011;16557;54.762;56.068;2023-04-01T19:51:25;15.85;;;11.68;;
29634;SDS011;16557;54.762;56.068;2023-04-01T19:57:05;16.65;;;11.80;;
29634;SDS011;16557;54.762;56.068;2023-04-01T20:13:42;14.93;;;10.08;;
29634;SDS011;16557;54.762;56.068;2023-04-01T20:16:13;14.90;;;10.00;;
29634;SDS011;16557;54.762;56.068;2023-04-01T20:18:56;16.02;;;11.15;;
29634;SDS011;16557;54.762;56.068;2023-04-01T20:21:30;14.75;;;10.68;;
29634;SDS011;16557;54.762;56.068;2023-04-01T20:27:00;14.58;;;10.55;;
29634;SDS011;16557;54.762;56.068;2023-04-01T20:29:41;21.33;;;13.75;;
29634;SDS011;16557;54.762;56.068;2023-04-01T20:40:47;18.77;;;13.95;;
29634;SDS011;16557;54.762;56.068;2023-04-01T20:43:24;28.80;;;20.75;;
29634;SDS011;16557;54.762;56.068;2023-04-01T20:46:20;19.25;;;15.15;;
29634;SDS011;16557;54.762;56.068;2023-04-01T20:49:00;17.27;;;13.25;;
29634;SDS011;16557;54.762;56.068;2023-04-01T20:51:59;18.07;;;12.90;;
29634;SDS011;16557;54.762;56.068;2023-04-01T20:54:30;12.05;;;9.20;;
29634;SDS011;16557;54.762;56.068;2023-04-01T21:05:30;13.55;;;10.18;;
29634;SDS011;16557;54.762;56.068;2023-04-01T21:08:19;12.90;;;8.65;;
29634;SDS011;16557;54.762;56.068;2023-04-01T21:13:40;15.58;;;11.33;;
29634;SDS011;16557;54.762;56.068;2023-04-01T21:19:12;13.90;;;9.70;;
29634;SDS011;16557;54.762;56.068;2023-04-01T21:21:53;13.03;;;9.68;;
29634;SDS011;16557;54.762;56.068;2023-04-01T21:55:28;14.45;;;9.85;;
29634;SDS011;16557;54.762;56.068;2023-04-01T22:04:02;13.55;;;9.83;;
29634;SDS011;16557;54.762;56.068;2023-04-01T22:06:44;14.23;;;10.23;;
29634;SDS011;16557;54.762;56.068;2023-04-01T22:09:25;14.18;;;10.13;;
29634;SDS011;16557;54.762;56.068;2023-04-01T22:12:03;14.30;;;10.25;;
29634;SDS011;16557;54.762;56.068;2023-04-01T22:23:11;15.58;;;11.08;;
29634;SDS011;16557;54.762;56.068;2023-04-01T22:26:05;13.80;;;9.83;;
29634;SDS011;16557;54.762;56.068;2023-04-01T22:28:36;13.58;;;9.85;;
29634;SDS011;16557;54.762;56.068;2023-04-01T22:31:32;19.10;;;14.68;;
29634;SDS011;16557;54.762;56.068;2023-04-01T22:36:57;17.65;;;12.50;;
29634;SDS011;16557;54.762;56.068;2023-04-01T22:42:51;14.90;;;9.93;;
29634;SDS011;16557;54.762;56.068;2023-04-01T22:45:21;13.68;;;9.53;;
29634;SDS011;16557;54.762;56.068;2023-04-01T22:48:09;11.83;;;8.35;;
29634;SDS011;16557;54.762;56.068;2023-04-01T22:50:44;17.35;;;13.15;;
29634;SDS011;16557;54.762;56.068;2023-04-01T22:56:12;15.93;;;10.50;;
29634;SDS011;16557;54.762;56.068;2023-04-01T22:58:49;13.78;;;9.68;;
29634;SDS011;16557;54.762;56.068;2023-04-01T23:01:25;15.20;;;9.73;;
29634;SDS011;16557;54.762;56.068;2023-04-01T23:03:57;13.13;;;9.88;;
29634;SDS011;16557;54.762;56.068;2023-04-01T23:06:29;14.43;;;9.25;;
29634;SDS011;16557;54.762;56.068;2023-04-01T23:09:10;19.05;;;12.98;;
29634;SDS011;16557;54.762;56.068;2023-04-01T23:11:46;13.68;;;9.98;;
29634;SDS011;16557;54.762;56.068;2023-04-01T23:14:37;13.93;;;9.63;;
29634;SDS011;16557;54.762;56.068;2023-04-01T23:17:17;15.63;;;10.68;;
29634;SDS011;16557;54.762;56.068;2023-04-01T23:20:13;15.30;;;9.85;;
29634;SDS011;16557;54.762;56.068;2023-04-01T23:28:44;13.85;;;8.93;;
29634;SDS011;16557;54.762;56.068;2023-04-01T23:39:21;17.87;;;11.15;;
29634;SDS011;16557;54.762;56.068;2023-04-01T23:41:54;16.50;;;12.30;;
29634;SDS011;16557;54.762;56.068;2023-04-01T23:44:24;18.07;;;11.88;;
29634;SDS011;16557;54.762;56.068;2023-04-01T23:46:54;18.57;;;12.23;;
29634;SDS011;16557;54.762;56.068;2023-04-01T23:49:28;19.77;;;10.75;;
29634;SDS011;16557;54.762;56.068;2023-04-01T23:52:11;19.62;;;14.00;;
29634;SDS011;16557;54.762;56.068;2023-04-01T23:54:52;16.30;;;10.82;;
29634;SDS011;16557;54.762;56.068;2023-04-01T23:57:24;17.70;;;13.13;;
